sensor_id;sensor_type;location;lat;lon;timestamp;P1;durP1;ratioP1;P2;durP2;ratioP2
4182;SDS011;2105;52.300;9.182;2023-11-21T00:00:01;42.80;;;18.93;;
4182;SDS011;2105;52.300;9.182;2023-11-21T00:02:28;30.57;;;17.77;;
4182;SDS011;2105;52.300;9.182;2023-11-21T00:04:55;35.67;;;18.10;;
4182;SDS011;2105;52.300;9.182;2023-11-21T00:07:23;31.10;;;17.20;;
4182;SDS011;2105;52.300;9.182;2023-11-21T00:09:50;28.97;;;18.40;;
4182;SDS011;2105;52.300;9.182;2023-11-21T00:12:16;36.30;;;18.83;;
4182;SDS011;2105;52.300;9.182;2023-11-21T00:14:43;34.70;;;18.87;;
4182;SDS011;2105;52.300;9.182;2023-11-21T00:17:10;33.90;;;19.03;;
4182;SDS011;2105;52.300;9.182;2023-11-21T00:19:36;36.03;;;19.90;;
4182;SDS011;2105;52.300;9.182;2023-11-21T00:22:03;32.97;;;19.97;;
4182;SDS011;2105;52.300;9.182;2023-11-21T00:24:32;38.40;;;21.23;;
4182;SDS011;2105;52.300;9.182;2023-11-21T00:26:59;40.90;;;21.97;;
4182;SDS011;2105;52.300;9.182;2023-11-21T00:29:26;37.83;;;21.10;;
4182;SDS011;2105;52.300;9.182;2023-11-21T00:31:53;42.63;;;22.40;;
4182;SDS011;2105;52.300;9.182;2023-11-21T00:34:19;37.27;;;21.73;;
4182;SDS011;2105;52.300;9.182;2023-11-21T00:36:46;47.43;;;23.80;;
4182;SDS011;2105;52.300;9.182;2023-11-21T00:39:13;41.53;;;23.37;;
4182;SDS011;2105;52.300;9.182;2023-11-21T00:41:42;45.40;;;23.10;;
4182;SDS011;2105;52.300;9.182;2023-11-21T00:44:09;42.93;;;23.57;;
4182;SDS011;2105;52.300;9.182;2023-11-21T00:46:36;48.23;;;24.13;;
4182;SDS011;2105;52.300;9.182;2023-11-21T00:49:03;63.03;;;25.50;;
4182;SDS011;2105;52.300;9.182;2023-11-21T00:51:30;61.10;;;24.80;;
4182;SDS011;2105;52.300;9.182;2023-11-21T00:53:56;54.93;;;24.87;;
4182;SDS011;2105;52.300;9.182;2023-11-21T00:56:23;48.87;;;24.77;;
4182;SDS011;2105;52.300;9.182;2023-11-21T00:58:51;53.93;;;25.00;;
4182;SDS011;2105;52.300;9.182;2023-11-21T01:01:19;43.00;;;23.83;;
4182;SDS011;2105;52.300;9.182;2023-11-21T01:03:47;38.60;;;24.00;;
4182;SDS011;2105;52.300;9.182;2023-11-21T01:06:14;48.93;;;25.93;;
4182;SDS011;2105;52.300;9.182;2023-11-21T01:08:41;55.50;;;25.50;;
4182;SDS011;2105;52.300;9.182;2023-11-21T01:11:07;56.33;;;25.67;;
4182;SDS011;2105;52.300;9.182;2023-11-21T01:13:37;51.63;;;24.67;;
4182;SDS011;2105;52.300;9.182;2023-11-21T01:16:06;57.67;;;25.77;;
4182;SDS011;2105;52.300;9.182;2023-11-21T01:18:33;50.90;;;25.70;;
4182;SDS011;2105;52.300;9.182;2023-11-21T01:21:01;58.00;;;26.63;;
4182;SDS011;2105;52.300;9.182;2023-11-21T01:23:27;50.03;;;26.77;;
4182;SDS011;2105;52.300;9.182;2023-11-21T01:25:55;54.20;;;25.77;;
4182;SDS011;2105;52.300;9.182;2023-11-21T01:28:23;49.77;;;26.70;;
4182;SDS011;2105;52.300;9.182;2023-11-21T01:30:49;54.80;;;26.17;;
4182;SDS011;2105;52.300;9.182;2023-11-21T01:33:18;51.40;;;25.80;;
4182;SDS011;2105;52.300;9.182;2023-11-21T01:35:44;48.83;;;27.30;;
4182;SDS011;2105;52.300;9.182;2023-11-21T01:38:12;54.90;;;25.70;;
4182;SDS011;2105;52.300;9.182;2023-11-21T01:40:39;67.27;;;28.03;;
4182;SDS011;2105;52.300;9.182;2023-11-21T01:43:06;51.00;;;26.93;;
4182;SDS011;2105;52.300;9.182;2023-11-21T01:45:33;58.73;;;27.30;;
4182;SDS011;2105;52.300;9.182;2023-11-21T01:48:00;57.03;;;27.07;;
4182;SDS011;2105;52.300;9.182;2023-11-21T01:50:29;65.43;;;28.10;;
4182;SDS011;2105;52.300;9.182;2023-11-21T01:52:56;55.70;;;27.67;;
4182;SDS011;2105;52.300;9.182;2023-11-21T01:55:23;52.40;;;26.40;;
4182;SDS011;2105;52.300;9.182;2023-11-21T01:57:52;56.20;;;29.40;;
4182;SDS011;2105;52.300;9.182;2023-11-21T02:00:19;52.30;;;27.40;;
4182;SDS011;2105;52.300;9.182;2023-11-21T02:02:46;62.27;;;29.00;;
4182;SDS011;2105;52.300;9.182;2023-11-21T02:05:13;53.50;;;26.90;;
4182;SDS011;2105;52.300;9.182;2023-11-21T02:07:43;50.53;;;26.30;;
4182;SDS011;2105;52.300;9.182;2023-11-21T02:10:13;58.53;;;25.77;;
4182;SDS011;2105;52.300;9.182;2023-11-21T02:12:40;59.13;;;27.53;;
4182;SDS011;2105;52.300;9.182;2023-11-21T02:15:08;59.20;;;27.70;;
4182;SDS011;2105;52.300;9.182;2023-11-21T02:17:40;53.73;;;26.53;;
4182;SDS011;2105;52.300;9.182;2023-11-21T02:20:09;53.27;;;27.80;;
4182;SDS011;2105;52.300;9.182;2023-11-21T02:22:40;58.63;;;26.43;;
4182;SDS011;2105;52.300;9.182;2023-11-21T02:25:09;73.57;;;26.10;;
4182;SDS011;2105;52.300;9.182;2023-11-21T02:27:36;74.13;;;27.90;;
4182;SDS011;2105;52.300;9.182;2023-11-21T02:30:03;62.43;;;26.83;;
4182;SDS011;2105;52.300;9.182;2023-11-21T02:32:32;61.67;;;27.10;;
4182;SDS011;2105;52.300;9.182;2023-11-21T02:34:59;48.73;;;24.80;;
4182;SDS011;2105;52.300;9.182;2023-11-21T02:37:33;48.50;;;24.63;;
4182;SDS011;2105;52.300;9.182;2023-11-21T02:40:00;58.20;;;24.83;;
4182;SDS011;2105;52.300;9.182;2023-11-21T02:42:30;53.50;;;25.10;;
4182;SDS011;2105;52.300;9.182;2023-11-21T02:44:57;57.77;;;24.57;;
4182;SDS011;2105;52.300;9.182;2023-11-21T02:47:23;60.90;;;26.27;;
4182;SDS011;2105;52.300;9.182;2023-11-21T02:49:50;55.10;;;25.73;;
4182;SDS011;2105;52.300;9.182;2023-11-21T02:52:17;51.33;;;24.53;;
4182;SDS011;2105;52.300;9.182;2023-11-21T02:54:45;48.77;;;25.57;;
4182;SDS011;2105;52.300;9.182;2023-11-21T02:57:11;58.40;;;25.10;;
4182;SDS011;2105;52.300;9.182;2023-11-21T02:59:40;51.40;;;24.03;;
4182;SDS011;2105;52.300;9.182;2023-11-21T03:02:06;57.83;;;24.60;;
4182;SDS011;2105;52.300;9.182;2023-11-21T03:04:34;59.67;;;26.00;;
4182;SDS011;2105;52.300;9.182;2023-11-21T03:07:00;58.57;;;25.53;;
4182;SDS011;2105;52.300;9.182;2023-11-21T03:09:27;50.20;;;26.30;;
4182;SDS011;2105;52.300;9.182;2023-11-21T03:11:54;60.40;;;26.80;;
4182;SDS011;2105;52.300;9.182;2023-11-21T03:14:21;62.23;;;24.73;;
4182;SDS011;2105;52.300;9.182;2023-11-21T03:16:49;53.13;;;24.90;;
4182;SDS011;2105;52.300;9.182;2023-11-21T03:19:15;52.47;;;25.50;;
4182;SDS011;2105;52.300;9.182;2023-11-21T03:21:42;56.00;;;24.33;;
4182;SDS011;2105;52.300;9.182;2023-11-21T03:24:09;50.27;;;23.07;;
4182;SDS011;2105;52.300;9.182;2023-11-21T03:26:36;57.10;;;26.30;;
4182;SDS011;2105;52.300;9.182;2023-11-21T03:29:03;67.40;;;27.47;;
4182;SDS011;2105;52.300;9.182;2023-11-21T03:31:30;65.40;;;26.53;;
4182;SDS011;2105;52.300;9.182;2023-11-21T03:33:58;63.00;;;26.03;;
4182;SDS011;2105;52.300;9.182;2023-11-21T03:36:25;66.37;;;25.93;;
4182;SDS011;2105;52.300;9.182;2023-11-21T03:38:52;60.13;;;24.40;;
4182;SDS011;2105;52.300;9.182;2023-11-21T03:41:19;59.40;;;25.83;;
4182;SDS011;2105;52.300;9.182;2023-11-21T03:43:46;60.43;;;25.87;;
4182;SDS011;2105;52.300;9.182;2023-11-21T03:46:13;72.13;;;26.03;;
4182;SDS011;2105;52.300;9.182;2023-11-21T03:48:40;60.17;;;25.53;;
4182;SDS011;2105;52.300;9.182;2023-11-21T03:51:08;73.97;;;26.70;;
4182;SDS011;2105;52.300;9.182;2023-11-21T03:53:35;67.67;;;25.97;;
4182;SDS011;2105;52.300;9.182;2023-11-21T03:56:02;61.37;;;25.10;;
4182;SDS011;2105;52.300;9.182;2023-11-21T03:58:29;70.77;;;27.30;;
4182;SDS011;2105;52.300;9.182;2023-11-21T04:00:56;79.63;;;26.90;;
4182;SDS011;2105;52.300;9.182;2023-11-21T04:03:22;68.23;;;26.40;;
4182;SDS011;2105;52.300;9.182;2023-11-21T04:05:49;65.00;;;27.00;;
4182;SDS011;2105;52.300;9.182;2023-11-21T04:08:17;67.87;;;26.17;;
4182;SDS011;2105;52.300;9.182;2023-11-21T04:10:44;65.50;;;26.10;;
4182;SDS011;2105;52.300;9.182;2023-11-21T04:13:11;70.57;;;27.43;;
4182;SDS011;2105;52.300;9.182;2023-11-21T04:15:37;64.57;;;27.37;;
4182;SDS011;2105;52.300;9.182;2023-11-21T04:18:04;65.40;;;26.30;;
4182;SDS011;2105;52.300;9.182;2023-11-21T04:20:31;73.40;;;28.10;;
4182;SDS011;2105;52.300;9.182;2023-11-21T04:22:58;65.17;;;27.80;;
4182;SDS011;2105;52.300;9.182;2023-11-21T04:25:26;75.03;;;28.10;;
4182;SDS011;2105;52.300;9.182;2023-11-21T04:27:53;79.00;;;28.77;;
4182;SDS011;2105;52.300;9.182;2023-11-21T04:30:20;75.37;;;28.67;;
4182;SDS011;2105;52.300;9.182;2023-11-21T04:32:47;78.80;;;27.37;;
4182;SDS011;2105;52.300;9.182;2023-11-21T04:35:13;93.17;;;30.63;;
4182;SDS011;2105;52.300;9.182;2023-11-21T04:37:40;87.77;;;29.27;;
4182;SDS011;2105;52.300;9.182;2023-11-21T04:40:07;74.13;;;27.60;;
4182;SDS011;2105;52.300;9.182;2023-11-21T04:42:36;88.63;;;28.83;;
4182;SDS011;2105;52.300;9.182;2023-11-21T04:45:03;95.37;;;29.50;;
4182;SDS011;2105;52.300;9.182;2023-11-21T04:47:34;80.43;;;30.00;;
4182;SDS011;2105;52.300;9.182;2023-11-21T04:50:00;91.97;;;28.50;;
4182;SDS011;2105;52.300;9.182;2023-11-21T04:52:28;86.97;;;29.50;;
4182;SDS011;2105;52.300;9.182;2023-11-21T04:54:54;95.17;;;29.37;;
4182;SDS011;2105;52.300;9.182;2023-11-21T04:57:23;84.10;;;28.07;;
4182;SDS011;2105;52.300;9.182;2023-11-21T04:59:51;78.33;;;27.60;;
4182;SDS011;2105;52.300;9.182;2023-11-21T05:02:18;80.07;;;27.90;;
4182;SDS011;2105;52.300;9.182;2023-11-21T05:04:46;74.53;;;27.30;;
4182;SDS011;2105;52.300;9.182;2023-11-21T05:07:13;76.50;;;27.70;;
4182;SDS011;2105;52.300;9.182;2023-11-21T05:09:41;93.07;;;28.80;;
4182;SDS011;2105;52.300;9.182;2023-11-21T05:12:09;83.53;;;28.30;;
4182;SDS011;2105;52.300;9.182;2023-11-21T05:14:37;80.10;;;26.00;;
4182;SDS011;2105;52.300;9.182;2023-11-21T05:17:05;82.70;;;28.10;;
4182;SDS011;2105;52.300;9.182;2023-11-21T05:19:33;78.00;;;27.63;;
4182;SDS011;2105;52.300;9.182;2023-11-21T05:22:00;74.83;;;27.33;;
4182;SDS011;2105;52.300;9.182;2023-11-21T05:24:27;69.13;;;25.20;;
4182;SDS011;2105;52.300;9.182;2023-11-21T05:26:53;72.70;;;25.70;;
4182;SDS011;2105;52.300;9.182;2023-11-21T05:29:21;69.03;;;25.60;;
4182;SDS011;2105;52.300;9.182;2023-11-21T05:31:47;72.77;;;22.70;;
4182;SDS011;2105;52.300;9.182;2023-11-21T05:34:16;58.70;;;23.67;;
4182;SDS011;2105;52.300;9.182;2023-11-21T05:36:43;72.73;;;25.37;;
4182;SDS011;2105;52.300;9.182;2023-11-21T05:39:10;66.40;;;24.47;;
4182;SDS011;2105;52.300;9.182;2023-11-21T05:41:37;76.03;;;24.77;;
4182;SDS011;2105;52.300;9.182;2023-11-21T05:44:04;72.50;;;24.73;;
4182;SDS011;2105;52.300;9.182;2023-11-21T05:46:31;65.33;;;23.70;;
4182;SDS011;2105;52.300;9.182;2023-11-21T05:48:58;63.13;;;25.50;;
4182;SDS011;2105;52.300;9.182;2023-11-21T05:51:26;76.07;;;25.77;;
4182;SDS011;2105;52.300;9.182;2023-11-21T05:53:53;58.60;;;23.27;;
4182;SDS011;2105;52.300;9.182;2023-11-21T05:56:19;72.00;;;25.00;;
4182;SDS011;2105;52.300;9.182;2023-11-21T05:58:46;71.47;;;24.60;;
4182;SDS011;2105;52.300;9.182;2023-11-21T06:01:12;56.33;;;22.87;;
4182;SDS011;2105;52.300;9.182;2023-11-21T06:03:39;66.83;;;24.87;;
4182;SDS011;2105;52.300;9.182;2023-11-21T06:06:06;65.70;;;23.13;;
4182;SDS011;2105;52.300;9.182;2023-11-21T06:08:35;62.07;;;23.03;;
4182;SDS011;2105;52.300;9.182;2023-11-21T06:11:01;66.77;;;23.13;;
4182;SDS011;2105;52.300;9.182;2023-11-21T06:13:28;62.33;;;22.47;;
4182;SDS011;2105;52.300;9.182;2023-11-21T06:15:55;52.00;;;22.20;;
4182;SDS011;2105;52.300;9.182;2023-11-21T06:18:22;46.87;;;19.50;;
4182;SDS011;2105;52.300;9.182;2023-11-21T06:20:49;48.77;;;20.83;;
4182;SDS011;2105;52.300;9.182;2023-11-21T06:23:17;40.40;;;19.17;;
4182;SDS011;2105;52.300;9.182;2023-11-21T06:25:45;56.47;;;20.10;;
4182;SDS011;2105;52.300;9.182;2023-11-21T06:28:12;50.50;;;21.00;;
4182;SDS011;2105;52.300;9.182;2023-11-21T06:30:42;47.37;;;19.47;;
4182;SDS011;2105;52.300;9.182;2023-11-21T06:33:09;47.50;;;19.50;;
4182;SDS011;2105;52.300;9.182;2023-11-21T06:35:36;53.17;;;20.43;;
4182;SDS011;2105;52.300;9.182;2023-11-21T06:38:03;46.90;;;20.27;;
4182;SDS011;2105;52.300;9.182;2023-11-21T06:40:30;55.60;;;20.97;;
4182;SDS011;2105;52.300;9.182;2023-11-21T06:43:00;46.83;;;18.90;;
4182;SDS011;2105;52.300;9.182;2023-11-21T06:45:26;48.63;;;18.03;;
4182;SDS011;2105;52.300;9.182;2023-11-21T06:47:53;48.40;;;19.97;;
4182;SDS011;2105;52.300;9.182;2023-11-21T06:50:20;44.87;;;18.87;;
4182;SDS011;2105;52.300;9.182;2023-11-21T06:52:47;41.93;;;17.33;;
4182;SDS011;2105;52.300;9.182;2023-11-21T06:55:14;42.83;;;18.67;;
4182;SDS011;2105;52.300;9.182;2023-11-21T07:01:06;37.33;;;16.27;;
4182;SDS011;2105;52.300;9.182;2023-11-21T07:03:33;37.87;;;16.40;;
4182;SDS011;2105;52.300;9.182;2023-11-21T07:06:00;37.90;;;16.30;;
4182;SDS011;2105;52.300;9.182;2023-11-21T07:08:26;34.70;;;14.57;;
4182;SDS011;2105;52.300;9.182;2023-11-21T07:10:53;34.17;;;15.67;;
4182;SDS011;2105;52.300;9.182;2023-11-21T07:13:20;29.77;;;14.40;;
4182;SDS011;2105;52.300;9.182;2023-11-21T07:15:46;24.90;;;13.33;;
4182;SDS011;2105;52.300;9.182;2023-11-21T07:18:15;27.10;;;12.13;;
4182;SDS011;2105;52.300;9.182;2023-11-21T07:20:41;22.67;;;12.03;;
4182;SDS011;2105;52.300;9.182;2023-11-21T07:23:08;21.93;;;11.13;;
4182;SDS011;2105;52.300;9.182;2023-11-21T07:25:35;20.03;;;11.17;;
4182;SDS011;2105;52.300;9.182;2023-11-21T07:28:02;21.67;;;10.47;;
4182;SDS011;2105;52.300;9.182;2023-11-21T07:30:30;19.10;;;9.83;;
4182;SDS011;2105;52.300;9.182;2023-11-21T07:32:57;21.73;;;11.43;;
4182;SDS011;2105;52.300;9.182;2023-11-21T07:35:25;17.93;;;9.83;;
4182;SDS011;2105;52.300;9.182;2023-11-21T07:37:52;19.77;;;11.27;;
4182;SDS011;2105;52.300;9.182;2023-11-21T07:40:19;19.17;;;11.13;;
4182;SDS011;2105;52.300;9.182;2023-11-21T07:42:47;22.60;;;11.93;;
4182;SDS011;2105;52.300;9.182;2023-11-21T07:45:15;25.83;;;12.23;;
4182;SDS011;2105;52.300;9.182;2023-11-21T07:47:41;33.87;;;13.57;;
4182;SDS011;2105;52.300;9.182;2023-11-21T07:50:08;32.97;;;15.30;;
4182;SDS011;2105;52.300;9.182;2023-11-21T07:52:37;28.63;;;14.87;;
4182;SDS011;2105;52.300;9.182;2023-11-21T07:55:05;30.20;;;15.30;;
4182;SDS011;2105;52.300;9.182;2023-11-21T07:57:32;28.73;;;13.00;;
4182;SDS011;2105;52.300;9.182;2023-11-21T07:59:59;30.30;;;12.43;;
4182;SDS011;2105;52.300;9.182;2023-11-21T08:02:26;20.97;;;11.63;;
4182;SDS011;2105;52.300;9.182;2023-11-21T08:04:52;19.50;;;11.13;;
4182;SDS011;2105;52.300;9.182;2023-11-21T08:07:21;21.90;;;12.20;;
4182;SDS011;2105;52.300;9.182;2023-11-21T08:09:49;21.40;;;12.43;;
4182;SDS011;2105;52.300;9.182;2023-11-21T08:12:16;21.00;;;10.93;;
4182;SDS011;2105;52.300;9.182;2023-11-21T08:14:43;21.27;;;9.33;;
4182;SDS011;2105;52.300;9.182;2023-11-21T08:17:10;22.80;;;9.97;;
4182;SDS011;2105;52.300;9.182;2023-11-21T08:19:36;17.57;;;9.37;;
4182;SDS011;2105;52.300;9.182;2023-11-21T08:22:03;16.20;;;8.70;;
4182;SDS011;2105;52.300;9.182;2023-11-21T08:24:32;16.00;;;9.23;;
4182;SDS011;2105;52.300;9.182;2023-11-21T08:27:00;15.23;;;9.30;;
4182;SDS011;2105;52.300;9.182;2023-11-21T08:29:29;14.70;;;8.90;;
4182;SDS011;2105;52.300;9.182;2023-11-21T08:31:56;13.93;;;8.83;;
4182;SDS011;2105;52.300;9.182;2023-11-21T08:34:24;13.90;;;8.83;;
4182;SDS011;2105;52.300;9.182;2023-11-21T08:36:51;15.33;;;9.53;;
4182;SDS011;2105;52.300;9.182;2023-11-21T08:39:18;13.50;;;9.20;;
4182;SDS011;2105;52.300;9.182;2023-11-21T08:41:44;11.70;;;8.80;;
4182;SDS011;2105;52.300;9.182;2023-11-21T08:44:13;11.53;;;9.10;;
4182;SDS011;2105;52.300;9.182;2023-11-21T08:46:41;12.10;;;9.10;;
4182;SDS011;2105;52.300;9.182;2023-11-21T08:49:09;10.03;;;7.53;;
4182;SDS011;2105;52.300;9.182;2023-11-21T08:51:36;10.57;;;8.10;;
4182;SDS011;2105;52.300;9.182;2023-11-21T08:54:03;13.73;;;9.07;;
4182;SDS011;2105;52.300;9.182;2023-11-21T08:56:33;14.73;;;10.33;;
4182;SDS011;2105;52.300;9.182;2023-11-21T08:58:59;20.23;;;10.60;;
4182;SDS011;2105;52.300;9.182;2023-11-21T09:01:28;13.80;;;10.30;;
4182;SDS011;2105;52.300;9.182;2023-11-21T09:03:56;17.17;;;11.50;;
4182;SDS011;2105;52.300;9.182;2023-11-21T09:06:23;17.13;;;12.20;;
4182;SDS011;2105;52.300;9.182;2023-11-21T09:08:50;15.83;;;11.97;;
4182;SDS011;2105;52.300;9.182;2023-11-21T09:11:17;14.60;;;10.73;;
4182;SDS011;2105;52.300;9.182;2023-11-21T09:13:43;15.97;;;11.17;;
4182;SDS011;2105;52.300;9.182;2023-11-21T09:16:12;14.43;;;11.20;;
4182;SDS011;2105;52.300;9.182;2023-11-21T09:18:41;16.50;;;12.50;;
4182;SDS011;2105;52.300;9.182;2023-11-21T09:21:11;19.87;;;12.07;;
4182;SDS011;2105;52.300;9.182;2023-11-21T09:23:38;18.37;;;12.40;;
4182;SDS011;2105;52.300;9.182;2023-11-21T09:26:05;17.17;;;12.97;;
4182;SDS011;2105;52.300;9.182;2023-11-21T09:28:32;17.03;;;12.47;;
4182;SDS011;2105;52.300;9.182;2023-11-21T09:31:02;16.53;;;12.90;;
4182;SDS011;2105;52.300;9.182;2023-11-21T09:33:30;19.97;;;13.33;;
4182;SDS011;2105;52.300;9.182;2023-11-21T09:36:00;17.97;;;13.87;;
4182;SDS011;2105;52.300;9.182;2023-11-21T09:38:29;17.77;;;13.83;;
4182;SDS011;2105;52.300;9.182;2023-11-21T09:40:56;20.33;;;13.63;;
4182;SDS011;2105;52.300;9.182;2023-11-21T09:43:24;22.63;;;15.20;;
4182;SDS011;2105;52.300;9.182;2023-11-21T09:45:56;18.47;;;13.50;;
4182;SDS011;2105;52.300;9.182;2023-11-21T09:48:25;18.60;;;13.20;;
4182;SDS011;2105;52.300;9.182;2023-11-21T09:50:53;22.90;;;14.00;;
4182;SDS011;2105;52.300;9.182;2023-11-21T09:53:21;21.10;;;14.10;;
4182;SDS011;2105;52.300;9.182;2023-11-21T09:55:51;22.93;;;14.40;;
4182;SDS011;2105;52.300;9.182;2023-11-21T09:58:19;24.53;;;16.60;;
4182;SDS011;2105;52.300;9.182;2023-11-21T10:00:49;22.17;;;15.60;;
4182;SDS011;2105;52.300;9.182;2023-11-21T10:03:19;20.80;;;13.80;;
4182;SDS011;2105;52.300;9.182;2023-11-21T10:05:46;17.37;;;12.80;;
4182;SDS011;2105;52.300;9.182;2023-11-21T10:08:16;18.27;;;12.70;;
4182;SDS011;2105;52.300;9.182;2023-11-21T10:10:46;32.60;;;19.30;;
4182;SDS011;2105;52.300;9.182;2023-11-21T10:13:15;16.07;;;13.67;;
4182;SDS011;2105;52.300;9.182;2023-11-21T10:15:44;17.47;;;13.27;;
4182;SDS011;2105;52.300;9.182;2023-11-21T10:18:15;16.27;;;11.60;;
4182;SDS011;2105;52.300;9.182;2023-11-21T10:20:43;17.67;;;13.20;;
4182;SDS011;2105;52.300;9.182;2023-11-21T10:23:16;19.33;;;13.80;;
4182;SDS011;2105;52.300;9.182;2023-11-21T10:25:45;22.13;;;13.40;;
4182;SDS011;2105;52.300;9.182;2023-11-21T10:28:12;17.00;;;13.70;;
4182;SDS011;2105;52.300;9.182;2023-11-21T10:30:39;23.43;;;13.10;;
4182;SDS011;2105;52.300;9.182;2023-11-21T10:33:07;16.50;;;14.30;;
4182;SDS011;2105;52.300;9.182;2023-11-21T10:35:42;16.07;;;14.37;;
4182;SDS011;2105;52.300;9.182;2023-11-21T10:38:13;18.80;;;14.03;;
4182;SDS011;2105;52.300;9.182;2023-11-21T10:40:40;19.67;;;14.77;;
4182;SDS011;2105;52.300;9.182;2023-11-21T10:43:13;20.33;;;15.30;;
4182;SDS011;2105;52.300;9.182;2023-11-21T10:45:40;20.03;;;15.47;;
4182;SDS011;2105;52.300;9.182;2023-11-21T10:48:08;20.37;;;15.57;;
4182;SDS011;2105;52.300;9.182;2023-11-21T10:50:36;17.50;;;14.27;;
4182;SDS011;2105;52.300;9.182;2023-11-21T10:53:04;18.40;;;15.30;;
4182;SDS011;2105;52.300;9.182;2023-11-21T10:55:31;20.93;;;15.53;;
4182;SDS011;2105;52.300;9.182;2023-11-21T10:57:59;25.10;;;14.57;;
4182;SDS011;2105;52.300;9.182;2023-11-21T11:00:29;19.47;;;16.20;;
4182;SDS011;2105;52.300;9.182;2023-11-21T11:02:57;20.20;;;14.80;;
4182;SDS011;2105;52.300;9.182;2023-11-21T11:05:24;20.00;;;15.00;;
4182;SDS011;2105;52.300;9.182;2023-11-21T11:07:58;18.87;;;14.77;;
4182;SDS011;2105;52.300;9.182;2023-11-21T11:10:29;19.03;;;15.03;;
4182;SDS011;2105;52.300;9.182;2023-11-21T11:12:56;17.53;;;14.70;;
4182;SDS011;2105;52.300;9.182;2023-11-21T11:15:24;17.63;;;14.30;;
4182;SDS011;2105;52.300;9.182;2023-11-21T11:17:53;18.63;;;13.00;;
4182;SDS011;2105;52.300;9.182;2023-11-21T11:20:22;16.50;;;13.63;;
4182;SDS011;2105;52.300;9.182;2023-11-21T11:22:56;15.50;;;13.97;;
4182;SDS011;2105;52.300;9.182;2023-11-21T11:25:37;15.87;;;14.00;;
4182;SDS011;2105;52.300;9.182;2023-11-21T11:28:17;15.27;;;13.50;;
4182;SDS011;2105;52.300;9.182;2023-11-21T11:30:50;13.83;;;12.33;;
4182;SDS011;2105;52.300;9.182;2023-11-21T11:33:31;14.80;;;13.30;;
4182;SDS011;2105;52.300;9.182;2023-11-21T11:36:04;17.30;;;13.20;;
4182;SDS011;2105;52.300;9.182;2023-11-21T11:38:34;14.57;;;12.80;;
4182;SDS011;2105;52.300;9.182;2023-11-21T11:41:01;13.77;;;11.63;;
4182;SDS011;2105;52.300;9.182;2023-11-21T11:43:29;16.03;;;13.03;;
4182;SDS011;2105;52.300;9.182;2023-11-21T11:45:57;13.73;;;12.40;;
4182;SDS011;2105;52.300;9.182;2023-11-21T11:48:28;14.40;;;12.70;;
4182;SDS011;2105;52.300;9.182;2023-11-21T11:51:01;14.30;;;12.80;;
4182;SDS011;2105;52.300;9.182;2023-11-21T11:53:37;13.43;;;12.10;;
4182;SDS011;2105;52.300;9.182;2023-11-21T11:56:19;13.83;;;12.43;;
4182;SDS011;2105;52.300;9.182;2023-11-21T11:58:52;13.70;;;12.27;;
4182;SDS011;2105;52.300;9.182;2023-11-21T12:01:21;12.50;;;11.13;;
4182;SDS011;2105;52.300;9.182;2023-11-21T12:07:01;15.00;;;13.50;;
4182;SDS011;2105;52.300;9.182;2023-11-21T12:09:29;14.90;;;13.50;;
4182;SDS011;2105;52.300;9.182;2023-11-21T12:11:58;17.37;;;14.27;;
4182;SDS011;2105;52.300;9.182;2023-11-21T12:14:25;23.47;;;14.70;;
4182;SDS011;2105;52.300;9.182;2023-11-21T12:16:51;15.30;;;13.60;;
4182;SDS011;2105;52.300;9.182;2023-11-21T12:19:19;12.30;;;11.30;;
4182;SDS011;2105;52.300;9.182;2023-11-21T12:21:49;14.20;;;12.70;;
4182;SDS011;2105;52.300;9.182;2023-11-21T12:24:16;13.90;;;12.70;;
4182;SDS011;2105;52.300;9.182;2023-11-21T12:26:42;14.07;;;12.80;;
4182;SDS011;2105;52.300;9.182;2023-11-21T12:29:10;14.10;;;12.80;;
4182;SDS011;2105;52.300;9.182;2023-11-21T12:31:36;16.10;;;13.33;;
4182;SDS011;2105;52.300;9.182;2023-11-21T12:34:03;13.87;;;12.47;;
4182;SDS011;2105;52.300;9.182;2023-11-21T12:36:31;14.70;;;13.37;;
4182;SDS011;2105;52.300;9.182;2023-11-21T12:39:01;14.53;;;13.33;;
4182;SDS011;2105;52.300;9.182;2023-11-21T12:41:28;14.93;;;13.57;;
4182;SDS011;2105;52.300;9.182;2023-11-21T12:43:56;14.73;;;13.40;;
4182;SDS011;2105;52.300;9.182;2023-11-21T12:46:23;18.07;;;13.23;;
4182;SDS011;2105;52.300;9.182;2023-11-21T12:48:53;15.43;;;14.03;;
4182;SDS011;2105;52.300;9.182;2023-11-21T12:51:21;14.40;;;13.20;;
4182;SDS011;2105;52.300;9.182;2023-11-21T12:53:48;15.07;;;13.67;;
4182;SDS011;2105;52.300;9.182;2023-11-21T12:56:17;15.77;;;14.27;;
4182;SDS011;2105;52.300;9.182;2023-11-21T12:58:45;16.07;;;14.47;;
4182;SDS011;2105;52.300;9.182;2023-11-21T13:01:13;19.40;;;17.40;;
4182;SDS011;2105;52.300;9.182;2023-11-21T13:03:44;19.53;;;17.63;;
4182;SDS011;2105;52.300;9.182;2023-11-21T13:06:15;18.00;;;16.30;;
4182;SDS011;2105;52.300;9.182;2023-11-21T13:08:44;17.13;;;15.43;;
4182;SDS011;2105;52.300;9.182;2023-11-21T13:11:11;16.50;;;14.90;;
4182;SDS011;2105;52.300;9.182;2023-11-21T13:13:41;16.27;;;14.77;;
4182;SDS011;2105;52.300;9.182;2023-11-21T13:16:09;17.00;;;15.27;;
4182;SDS011;2105;52.300;9.182;2023-11-21T13:18:36;16.40;;;14.97;;
4182;SDS011;2105;52.300;9.182;2023-11-21T13:21:05;17.23;;;15.53;;
4182;SDS011;2105;52.300;9.182;2023-11-21T13:23:37;17.10;;;15.40;;
4182;SDS011;2105;52.300;9.182;2023-11-21T13:26:05;16.60;;;15.00;;
4182;SDS011;2105;52.300;9.182;2023-11-21T13:28:33;17.97;;;16.37;;
4182;SDS011;2105;52.300;9.182;2023-11-21T13:31:03;16.93;;;15.33;;
4182;SDS011;2105;52.300;9.182;2023-11-21T13:33:45;17.73;;;16.03;;
4182;SDS011;2105;52.300;9.182;2023-11-21T13:36:16;18.77;;;16.97;;
4182;SDS011;2105;52.300;9.182;2023-11-21T13:38:47;31.90;;;22.33;;
4182;SDS011;2105;52.300;9.182;2023-11-21T13:41:14;45.90;;;27.90;;
4182;SDS011;2105;52.300;9.182;2023-11-21T13:43:42;67.17;;;31.03;;
4182;SDS011;2105;52.300;9.182;2023-11-21T13:46:16;51.43;;;30.43;;
4182;SDS011;2105;52.300;9.182;2023-11-21T13:48:46;21.07;;;18.83;;
4182;SDS011;2105;52.300;9.182;2023-11-21T13:51:15;19.37;;;17.10;;
4182;SDS011;2105;52.300;9.182;2023-11-21T13:53:43;23.10;;;20.30;;
4182;SDS011;2105;52.300;9.182;2023-11-21T13:56:12;28.60;;;25.63;;
4182;SDS011;2105;52.300;9.182;2023-11-21T13:58:43;35.77;;;31.30;;
4182;SDS011;2105;52.300;9.182;2023-11-21T14:01:17;19.80;;;17.80;;
4182;SDS011;2105;52.300;9.182;2023-11-21T14:04:06;19.63;;;17.73;;
4182;SDS011;2105;52.300;9.182;2023-11-21T14:06:44;18.77;;;16.87;;
4182;SDS011;2105;52.300;9.182;2023-11-21T14:09:13;19.10;;;17.30;;
4182;SDS011;2105;52.300;9.182;2023-11-21T14:11:47;20.80;;;18.87;;
4182;SDS011;2105;52.300;9.182;2023-11-21T14:14:18;17.70;;;16.10;;
4182;SDS011;2105;52.300;9.182;2023-11-21T14:16:46;20.47;;;18.53;;
4182;SDS011;2105;52.300;9.182;2023-11-21T14:19:13;17.97;;;16.10;;
4182;SDS011;2105;52.300;9.182;2023-11-21T14:21:42;19.23;;;17.13;;
4182;SDS011;2105;52.300;9.182;2023-11-21T14:24:09;18.17;;;16.27;;
4182;SDS011;2105;52.300;9.182;2023-11-21T14:26:37;16.90;;;15.40;;
4182;SDS011;2105;52.300;9.182;2023-11-21T14:29:05;16.10;;;14.60;;
4182;SDS011;2105;52.300;9.182;2023-11-21T14:31:33;17.23;;;15.53;;
4182;SDS011;2105;52.300;9.182;2023-11-21T14:34:01;41.03;;;26.40;;
4182;SDS011;2105;52.300;9.182;2023-11-21T14:36:28;48.33;;;33.90;;
4182;SDS011;2105;52.300;9.182;2023-11-21T14:38:55;17.77;;;15.20;;
4182;SDS011;2105;52.300;9.182;2023-11-21T14:41:22;16.50;;;14.80;;
4182;SDS011;2105;52.300;9.182;2023-11-21T14:43:50;16.87;;;15.33;;
4182;SDS011;2105;52.300;9.182;2023-11-21T14:46:18;17.33;;;14.60;;
4182;SDS011;2105;52.300;9.182;2023-11-21T14:48:45;17.60;;;14.70;;
4182;SDS011;2105;52.300;9.182;2023-11-21T14:51:21;16.30;;;14.80;;
4182;SDS011;2105;52.300;9.182;2023-11-21T14:53:56;20.47;;;17.40;;
4182;SDS011;2105;52.300;9.182;2023-11-21T14:56:29;20.73;;;17.43;;
4182;SDS011;2105;52.300;9.182;2023-11-21T14:58:58;19.80;;;17.90;;